»·PEaware :: N350PB KSAN-KSNA

N350PB :: KSAN-KSNA

FLIGHT INFORMATION

Flight Status: Arrived
Operator: Privately registered:
United States
More flights under this callsign
Pilot: John H. (3957)
Aircraft: BEECH AIRCRAFT A90-E90 KING AIR
(BE9L)
More flights by this aircraft type
Origin: KSAN San Diego Intl-Lindbergh
United States
Destination: KSNA John Wayne-Orange Co
United States
More flights between these airports :: More routes between these airports
Route: +PEBLE6 SLI
File this flight plan on PilotEdge
Remarks: TEC route SANN4
Altitude:
(Current/Filed)
8,000ft
Speed:
(Current/Filed)
220kts
Departed: 10-Jan-18 03:30 PM
Arrived: 10-Jan-18 04:17 PM
Distance/Time
Traveled:
66nm/0:47
Distance/Time
To Go:
Arrived

Flight Plot

Page will automatically refresh every two minutes.


Map Options




Map Legend


Flown Route
Filed Route
Departure Airport
Arrival Airport
Navaid (VOR, NDB)
Fix

Horizontal Profiles

Position Reports

Time Latitude Longitude Heading Altitude Ground
Speed
10-Jan-18 15:01 32.732420 -117.176641 194 22ft 0kts
10-Jan-18 15:02 32.732420 -117.176641 194 22ft 0kts
10-Jan-18 15:03 32.732420 -117.176641 194 22ft 0kts
10-Jan-18 15:04 32.732420 -117.176641 194 22ft 0kts
10-Jan-18 15:05 32.732420 -117.176641 194 22ft 0kts
10-Jan-18 15:06 32.732420 -117.176641 194 22ft 0kts
10-Jan-18 15:07 32.732420 -117.176641 194 22ft 0kts
10-Jan-18 15:08 32.732420 -117.176641 194 22ft 0kts
10-Jan-18 15:09 32.732420 -117.176641 194 22ft 0kts
10-Jan-18 15:10 32.732420 -117.176641 194 22ft 0kts
10-Jan-18 15:11 32.732420 -117.176641 194 22ft 0kts
10-Jan-18 15:12 32.732420 -117.176641 194 22ft 0kts
10-Jan-18 15:13 32.732420 -117.176641 194 22ft 0kts
10-Jan-18 15:14 32.732420 -117.176641 194 22ft 0kts
10-Jan-18 15:15 32.732420 -117.176641 194 22ft 0kts
10-Jan-18 15:16 32.732420 -117.176641 194 22ft 0kts
10-Jan-18 15:17 32.732420 -117.176641 194 22ft 0kts
10-Jan-18 15:18 32.732420 -117.176641 194 22ft 0kts
10-Jan-18 15:19 32.732420 -117.176641 194 22ft 0kts
10-Jan-18 15:20 32.732420 -117.176641 194 22ft 0kts
10-Jan-18 15:21 32.732420 -117.176641 194 22ft 0kts
10-Jan-18 15:22 32.732420 -117.176641 194 22ft 0kts
10-Jan-18 15:23 32.732420 -117.176641 194 22ft 0kts
10-Jan-18 15:24 32.732420 -117.176641 194 22ft 0kts
10-Jan-18 15:25 32.732420 -117.176641 194 22ft 0kts
10-Jan-18 15:26 32.732420 -117.176641 194 22ft 0kts
10-Jan-18 15:27 32.732420 -117.176641 194 22ft 0kts
10-Jan-18 15:28 32.732420 -117.176641 194 22ft 0kts
10-Jan-18 15:29 32.732420 -117.176641 194 22ft 0kts
10-Jan-18 15:30 32.732420 -117.176641 194 22ft 0kts
10-Jan-18 15:31 32.732420 -117.176641 194 22ft 0kts
10-Jan-18 15:32 32.732420 -117.176641 194 22ft 0kts
10-Jan-18 15:33 32.731089 -117.175576 127 23ft 1kts
10-Jan-18 15:34 32.731089 -117.175576 127 23ft 0kts
10-Jan-18 15:35 32.730734 -117.175430 194 22ft 12kts
10-Jan-18 15:36 32.732325 -117.184975 285 16ft 122kts
10-Jan-18 15:37 32.746959 -117.218348 303 1721ft 140kts
10-Jan-18 15:38 32.768565 -117.254903 303 3579ft 144kts
10-Jan-18 15:39 32.789506 -117.290542 303 5328ft 143kts
10-Jan-18 15:40 32.810104 -117.325347 303 6961ft 141kts
10-Jan-18 15:41 32.831397 -117.360190 303 8003ft 171kts
10-Jan-18 15:42 32.862552 -117.400287 312 8004ft 205kts
10-Jan-18 15:43 32.899656 -117.439191 312 7975ft 201kts
10-Jan-18 15:44 32.935963 -117.481719 310 7971ft 191kts
10-Jan-18 15:45 32.972175 -117.518576 313 7969ft 183kts
10-Jan-18 15:46 32.999494 -117.557240 308 7970ft 178kts
10-Jan-18 15:47 33.024736 -117.595585 308 7970ft 178kts
10-Jan-18 15:48 33.051537 -117.636301 308 7994ft 177kts
10-Jan-18 15:49 33.080322 -117.680019 307 8001ft 178kts
10-Jan-18 15:50 33.101843 -117.712751 309 8000ft 178kts
10-Jan-18 15:51 33.121919 -117.736330 310 8002ft 179kts
10-Jan-18 15:52 33.142424 -117.770524 305 8004ft 179kts
10-Jan-18 15:53 33.169133 -117.813977 307 8003ft 179kts
10-Jan-18 15:54 33.194500 -117.848343 338 7999ft 183kts
10-Jan-18 15:55 33.229308 -117.841594 7 7982ft 194kts
10-Jan-18 15:56 33.277496 -117.826934 7 7975ft 195kts
10-Jan-18 15:57 33.308737 -117.817446 7 7975ft 195kts
10-Jan-18 15:58 33.346843 -117.805847 7 7972ft 195kts
10-Jan-18 15:59 33.390764 -117.792592 7 7994ft 193kts
10-Jan-18 16:00 33.420834 -117.783746 7 7705ft 196kts
10-Jan-18 16:01 33.458897 -117.774877 7 7086ft 208kts
10-Jan-18 16:02 33.512182 -117.763785 7 6047ft 217kts
10-Jan-18 16:03 33.564755 -117.753297 7 5977ft 195kts
10-Jan-18 16:04 33.607258 -117.745168 7 5975ft 166kts
10-Jan-18 16:05 33.642759 -117.739429 7 5839ft 159kts
10-Jan-18 16:06 33.673340 -117.734541 7 5361ft 153kts
10-Jan-18 16:07 33.706629 -117.729220 7 4846ft 148kts
10-Jan-18 16:08 33.747913 -117.722597 7 3935ft 163kts
10-Jan-18 16:09 33.776148 -117.718109 7 3992ft 114kts
10-Jan-18 16:10 33.800213 -117.714329 7 3996ft 106kts
10-Jan-18 16:11 33.822107 -117.710850 6 4030ft 115kts
10-Jan-18 16:12 33.847240 -117.706816 5 4029ft 125kts
10-Jan-18 16:13 33.857067 -117.729606 230 4021ft 124kts
10-Jan-18 16:14 33.839153 -117.755871 231 3844ft 134kts
10-Jan-18 16:15 33.814405 -117.779785 211 3132ft 131kts
10-Jan-18 16:16 33.801489 -117.788735 209 2807ft 126kts
10-Jan-18 16:17 33.783978 -117.800114 208 2380ft 113kts
10-Jan-18 16:18 33.761466 -117.814438 211 1874ft 114kts
10-Jan-18 16:19 33.737898 -117.829416 211 1337ft 108kts
10-Jan-18 16:20 33.716637 -117.842910 208 859ft 103kts
10-Jan-18 16:21 33.697401 -117.855020 207 415ft 103kts
10-Jan-18 16:22 33.677486 -117.867782 207 63ft 97kts
10-Jan-18 16:23 33.674233 -117.870950 311 59ft 0kts
10-Jan-18 16:24 33.674581 -117.871813 223 59ft 0kts

Navigation Log

Ident Type
1. KSAN Airport
2. MELDY Fix
3. PEBLE Fix
4. SLI Navaid
5. KSNA Airport